sensor_id;sensor_type;location;lat;lon;timestamp;pressure;altitude;pressure_sealevel;temperature;humidity
7170;BME280;3626;42.656;23.312;2022-12-07T00:00:04;94547.28;;;4.49;100.00
7170;BME280;3626;42.656;23.312;2022-12-07T00:00:11;94545.00;;;4.46;100.00
7170;BME280;3626;42.656;23.312;2022-12-07T00:00:18;94544.34;;;4.44;100.00
7170;BME280;3626;42.656;23.312;2022-12-07T00:00:23;94553.75;;;4.43;100.00
7170;BME280;3626;42.656;23.312;2022-12-07T00:00:29;94548.78;;;4.42;100.00
7170;BME280;3626;42.656;23.312;2022-12-07T00:00:35;94548.78;;;4.42;100.00
7170;BME280;3626;42.656;23.312;2022-12-07T00:00:41;94546.22;;;4.42;100.00
7170;BME280;3626;42.656;23.312;2022-12-07T00:00:46;94559.00;;;4.42;100.00
7170;BME280;3626;42.656;23.312;2022-12-07T00:00:52;94550.50;;;4.41;100.00
7170;BME280;3626;42.656;23.312;2022-12-07T00:01:05;94545.13;;;4.44;100.00
7170;BME280;3626;42.656;23.312;2022-12-07T00:01:13;94552.66;;;4.46;100.00
7170;BME280;3626;42.656;23.312;2022-12-07T00:01:23;94548.25;;;4.48;100.00
7170;BME280;3626;42.656;23.312;2022-12-07T00:01:31;94549.84;;;4.49;100.00
7170;BME280;3626;42.656;23.312;2022-12-07T00:01:38;94549.75;;;4.50;100.00
7170;BME280;3626;42.656;23.312;2022-12-07T00:01:45;94545.69;;;4.48;100.00
7170;BME280;3626;42.656;23.312;2022-12-07T00:01:51;94545.00;;;4.46;100.00
7170;BME280;3626;42.656;23.312;2022-12-07T00:01:57;94545.81;;;4.46;100.00
7170;BME280;3626;42.656;23.312;2022-12-07T00:02:03;94555.09;;;4.47;100.00
7170;BME280;3626;42.656;23.312;2022-12-07T00:02:08;94543.00;;;4.49;100.00
7170;BME280;3626;42.656;23.312;2022-12-07T00:02:14;94546.25;;;4.51;100.00
7170;BME280;3626;42.656;23.312;2022-12-07T00:02:20;94553.75;;;4.53;100.00
7170;BME280;3626;42.656;23.312;2022-12-07T00:02:28;94549.47;;;4.54;100.00
7170;BME280;3626;42.656;23.312;2022-12-07T00:02:34;94549.34;;;4.55;100.00
7170;BME280;3626;42.656;23.312;2022-12-07T00:02:39;94548.41;;;4.56;100.00
7170;BME280;3626;42.656;23.312;2022-12-07T00:02:45;94546.66;;;4.57;100.00
7170;BME280;3626;42.656;23.312;2022-12-07T00:02:51;94551.63;;;4.58;100.00
7170;BME280;3626;42.656;23.312;2022-12-07T00:02:56;94544.09;;;4.57;100.00
7170;BME280;3626;42.656;23.312;2022-12-07T00:03:02;94550.00;;;4.57;100.00
7170;BME280;3626;42.656;23.312;2022-12-07T00:03:08;94549.19;;;4.57;100.00
7170;BME280;3626;42.656;23.312;2022-12-07T00:03:14;94544.22;;;4.55;100.00
7170;BME280;3626;42.656;23.312;2022-12-07T00:03:19;94546.91;;;4.54;100.00
7170;BME280;3626;42.656;23.312;2022-12-07T00:03:25;94551.09;;;4.55;100.00
7170;BME280;3626;42.656;23.312;2022-12-07T00:03:31;94547.59;;;4.56;100.00
7170;BME280;3626;42.656;23.312;2022-12-07T00:03:38;94550.94;;;4.56;100.00
7170;BME280;3626;42.656;23.312;2022-12-07T00:03:45;94550.16;;;4.56;100.00
7170;BME280;3626;42.656;23.312;2022-12-07T00:03:52;94551.09;;;4.55;100.00
7170;BME280;3626;42.656;23.312;2022-12-07T00:04:01;94543.13;;;4.58;100.00
7170;BME280;3626;42.656;23.312;2022-12-07T00:04:11;94546.38;;;4.60;100.00
7170;BME280;3626;42.656;23.312;2022-12-07T00:04:18;94548.00;;;4.61;100.00
7170;BME280;3626;42.656;23.312;2022-12-07T00:04:24;94548.81;;;4.61;100.00
7170;BME280;3626;42.656;23.312;2022-12-07T00:04:29;94548.81;;;4.61;100.00
7170;BME280;3626;42.656;23.312;2022-12-07T00:04:35;94551.34;;;4.61;100.00
7170;BME280;3626;42.656;23.312;2022-12-07T00:04:41;94552.16;;;4.62;100.00
7170;BME280;3626;42.656;23.312;2022-12-07T00:04:48;94547.06;;;4.62;100.00
7170;BME280;3626;42.656;23.312;2022-12-07T00:04:54;94548.81;;;4.61;100.00
7170;BME280;3626;42.656;23.312;2022-12-07T00:05:00;94550.56;;;4.61;100.00
7170;BME280;3626;42.656;23.312;2022-12-07T00:05:06;94548.00;;;4.61;100.00
7170;BME280;3626;42.656;23.312;2022-12-07T00:05:12;94547.19;;;4.60;100.00
7170;BME280;3626;42.656;23.312;2022-12-07T00:05:17;94548.00;;;4.61;100.00
7170;BME280;3626;42.656;23.312;2022-12-07T00:05:24;94545.59;;;4.59;100.00
7170;BME280;3626;42.656;23.312;2022-12-07T00:05:30;94546.50;;;4.58;100.00
7170;BME280;3626;42.656;23.312;2022-12-07T00:05:36;94548.25;;;4.58;100.00
7170;BME280;3626;42.656;23.312;2022-12-07T00:05:41;94548.13;;;4.59;100.00
7170;BME280;3626;42.656;23.312;2022-12-07T00:05:47;94551.50;;;4.60;100.00
7170;BME280;3626;42.656;23.312;2022-12-07T00:05:57;94550.81;;;4.58;100.00
7170;BME280;3626;42.656;23.312;2022-12-07T00:06:04;94549.88;;;4.59;100.00
7170;BME280;3626;42.656;23.312;2022-12-07T00:06:12;94545.44;;;4.61;100.00
7170;BME280;3626;42.656;23.312;2022-12-07T00:06:19;94548.00;;;4.61;100.00
7170;BME280;3626;42.656;23.312;2022-12-07T00:06:25;94544.63;;;4.60;100.00
7170;BME280;3626;42.656;23.312;2022-12-07T00:06:31;94546.09;;;4.63;100.00
7170;BME280;3626;42.656;23.312;2022-12-07T00:06:38;94551.22;;;4.63;100.00
7170;BME280;3626;42.656;23.312;2022-12-07T00:06:47;94544.38;;;4.63;100.00
7170;BME280;3626;42.656;23.312;2022-12-07T00:06:55;94547.59;;;4.65;100.00
7170;BME280;3626;42.656;23.312;2022-12-07T00:07:01;94550.00;;;4.67;100.00
7170;BME280;3626;42.656;23.312;2022-12-07T00:07:08;94549.22;;;4.66;100.00
7170;BME280;3626;42.656;23.312;2022-12-07T00:07:13;94544.91;;;4.67;100.00
7170;BME280;3626;42.656;23.312;2022-12-07T00:07:19;94548.97;;;4.69;100.00
7170;BME280;3626;42.656;23.312;2022-12-07T00:07:25;94542.22;;;4.68;100.00
7170;BME280;3626;42.656;23.312;2022-12-07T00:07:30;94547.91;;;4.72;100.00
7170;BME280;3626;42.656;23.312;2022-12-07T00:07:36;94544.66;;;4.70;100.00
7170;BME280;3626;42.656;23.312;2022-12-07T00:07:42;94549.91;;;4.68;100.00
7170;BME280;3626;42.656;23.312;2022-12-07T00:07:49;94549.22;;;4.66;100.00
7170;BME280;3626;42.656;23.312;2022-12-07T00:07:54;94544.09;;;4.66;100.00
7170;BME280;3626;42.656;23.312;2022-12-07T00:08:00;94543.28;;;4.66;100.00
7170;BME280;3626;42.656;23.312;2022-12-07T00:08:07;94545.75;;;4.67;100.00
7170;BME280;3626;42.656;23.312;2022-12-07T00:08:12;94545.03;;;4.65;100.00
7170;BME280;3626;42.656;23.312;2022-12-07T00:08:18;94544.09;;;4.66;100.00
7170;BME280;3626;42.656;23.312;2022-12-07T00:08:24;94543.28;;;4.66;100.00
7170;BME280;3626;42.656;23.312;2022-12-07T00:08:30;94540.75;;;4.66;100.00
7170;BME280;3626;42.656;23.312;2022-12-07T00:08:37;94544.78;;;4.68;100.00
7170;BME280;3626;42.656;23.312;2022-12-07T00:08:42;94545.59;;;4.69;100.00
7170;BME280;3626;42.656;23.312;2022-12-07T00:08:48;94548.16;;;4.69;100.00
7170;BME280;3626;42.656;23.312;2022-12-07T00:08:54;94547.06;;;4.71;100.00
7170;BME280;3626;42.656;23.312;2022-12-07T00:09:00;94541.94;;;4.71;100.00
7170;BME280;3626;42.656;23.312;2022-12-07T00:09:10;94547.91;;;4.72;100.00
7170;BME280;3626;42.656;23.312;2022-12-07T00:09:16;94544.38;;;4.73;100.00
7170;BME280;3626;42.656;23.312;2022-12-07T00:09:22;94537.53;;;4.73;100.00
7170;BME280;3626;42.656;23.312;2022-12-07T00:09:28;94548.56;;;4.74;100.00
7170;BME280;3626;42.656;23.312;2022-12-07T00:09:34;94540.88;;;4.74;100.00
7170;BME280;3626;42.656;23.312;2022-12-07T00:09:40;94543.44;;;4.74;100.00
7170;BME280;3626;42.656;23.312;2022-12-07T00:09:46;94540.09;;;4.73;100.00
7170;BME280;3626;42.656;23.312;2022-12-07T00:09:52;94546.94;;;4.73;100.00
7170;BME280;3626;42.656;23.312;2022-12-07T00:09:58;94540.88;;;4.74;100.00
7170;BME280;3626;42.656;23.312;2022-12-07T00:10:05;94546.94;;;4.73;100.00
7170;BME280;3626;42.656;23.312;2022-12-07T00:10:12;94547.75;;;4.73;100.00
7170;BME280;3626;42.656;23.312;2022-12-07T00:10:18;94546.00;;;4.74;100.00
7170;BME280;3626;42.656;23.312;2022-12-07T00:10:23;94541.84;;;4.73;100.00
7170;BME280;3626;42.656;23.312;2022-12-07T00:10:29;94544.38;;;4.73;100.00
7170;BME280;3626;42.656;23.312;2022-12-07T00:10:35;94543.44;;;4.74;100.00
7170;BME280;3626;42.656;23.312;2022-12-07T00:10:41;94544.25;;;4.74;100.00
7170;BME280;3626;42.656;23.312;2022-12-07T00:10:46;94541.69;;;4.74;100.00
7170;BME280;3626;42.656;23.312;2022-12-07T00:10:52;94542.50;;;4.75;100.00
7170;BME280;3626;42.656;23.312;2022-12-07T00:11:00;94541.69;;;4.74;100.00
7170;BME280;3626;42.656;23.312;2022-12-07T00:11:08;94547.59;;;4.75;100.00
7170;BME280;3626;42.656;23.312;2022-12-07T00:11:16;94541.69;;;4.74;100.00
7170;BME280;3626;42.656;23.312;2022-12-07T00:11:22;94539.13;;;4.74;100.00
7170;BME280;3626;42.656;23.312;2022-12-07T00:11:29;94542.50;;;4.75;100.00
7170;BME280;3626;42.656;23.312;2022-12-07T00:11:35;94540.88;;;4.74;100.00
7170;BME280;3626;42.656;23.312;2022-12-07T00:11:41;94545.19;;;4.73;100.00
7170;BME280;3626;42.656;23.312;2022-12-07T00:11:49;94539.28;;;4.73;100.00
7170;BME280;3626;42.656;23.312;2022-12-07T00:11:55;94541.69;;;4.74;100.00
7170;BME280;3626;42.656;23.312;2022-12-07T00:12:00;94543.31;;;4.75;100.00
7170;BME280;3626;42.656;23.312;2022-12-07T00:12:06;94539.28;;;4.73;100.00
7170;BME280;3626;42.656;23.312;2022-12-07T00:12:12;94538.59;;;4.71;100.00
7170;BME280;3626;42.656;23.312;2022-12-07T00:12:18;94542.78;;;4.72;100.00
7170;BME280;3626;42.656;23.312;2022-12-07T00:12:23;94542.09;;;4.70;100.00
7170;BME280;3626;42.656;23.312;2022-12-07T00:12:29;94544.91;;;4.67;100.00
7170;BME280;3626;42.656;23.312;2022-12-07T00:12:35;94532.13;;;4.67;100.00
7170;BME280;3626;42.656;23.312;2022-12-07T00:12:41;94541.44;;;4.68;100.00
7170;BME280;3626;42.656;23.312;2022-12-07T00:12:46;94541.44;;;4.68;100.00
7170;BME280;3626;42.656;23.312;2022-12-07T00:12:53;94545.75;;;4.67;100.00
7170;BME280;3626;42.656;23.312;2022-12-07T00:12:59;94540.63;;;4.67;100.00
7170;BME280;3626;42.656;23.312;2022-12-07T00:13:05;94533.88;;;4.66;100.00
7170;BME280;3626;42.656;23.312;2022-12-07T00:13:10;94538.88;;;4.68;100.00
7170;BME280;3626;42.656;23.312;2022-12-07T00:13:16;94540.63;;;4.67;100.00
7170;BME280;3626;42.656;23.312;2022-12-07T00:13:22;94539.69;;;4.68;100.00
7170;BME280;3626;42.656;23.312;2022-12-07T00:13:29;94541.28;;;4.69;100.00
7170;BME280;3626;42.656;23.312;2022-12-07T00:13:35;94539.53;;;4.70;100.00
7170;BME280;3626;42.656;23.312;2022-12-07T00:13:41;94540.34;;;4.70;100.00
7170;BME280;3626;42.656;23.312;2022-12-07T00:13:51;94541.13;;;4.71;100.00
7170;BME280;3626;42.656;23.312;2022-12-07T00:13:58;94536.84;;;4.71;100.00
7170;BME280;3626;42.656;23.312;2022-12-07T00:14:06;94539.28;;;4.73;100.00
7170;BME280;3626;42.656;23.312;2022-12-07T00:14:15;94535.78;;;4.74;100.00
7170;BME280;3626;42.656;23.312;2022-12-07T00:14:21;94540.09;;;4.73;100.00
7170;BME280;3626;42.656;23.312;2022-12-07T00:14:26;94535.63;;;4.75;100.00
7170;BME280;3626;42.656;23.312;2022-12-07T00:14:32;94541.56;;;4.76;100.00
7170;BME280;3626;42.656;23.312;2022-12-07T00:14:38;94542.50;;;4.75;100.00
7170;BME280;3626;42.656;23.312;2022-12-07T00:14:44;94536.72;;;4.73;100.00
7170;BME280;3626;42.656;23.312;2022-12-07T00:14:49;94534.97;;;4.73;100.00
7170;BME280;3626;42.656;23.312;2022-12-07T00:14:55;94533.34;;;4.72;100.00
7170;BME280;3626;42.656;23.312;2022-12-07T00:15:01;94537.66;;;4.72;100.00
7170;BME280;3626;42.656;23.312;2022-12-07T00:15:07;94527.44;;;4.72;100.00
7170;BME280;3626;42.656;23.312;2022-12-07T00:15:13;94537.66;;;4.72;100.00
7170;BME280;3626;42.656;23.312;2022-12-07T00:15:19;94535.91;;;4.72;100.00
7170;BME280;3626;42.656;23.312;2022-12-07T00:15:25;94536.72;;;4.73;100.00
7170;BME280;3626;42.656;23.312;2022-12-07T00:15:30;94538.34;;;4.74;100.00
7170;BME280;3626;42.656;23.312;2022-12-07T00:15:38;94538.34;;;4.74;100.00
7170;BME280;3626;42.656;23.312;2022-12-07T00:15:45;94540.09;;;4.73;100.00
7170;BME280;3626;42.656;23.312;2022-12-07T00:15:51;94540.75;;;4.75;100.00
7170;BME280;3626;42.656;23.312;2022-12-07T00:16:00;94537.53;;;4.73;100.00
7170;BME280;3626;42.656;23.312;2022-12-07T00:16:08;94534.16;;;4.73;100.00
7170;BME280;3626;42.656;23.312;2022-12-07T00:16:16;94544.38;;;4.73;100.00
7170;BME280;3626;42.656;23.312;2022-12-07T00:16:24;94538.47;;;4.72;100.00
7170;BME280;3626;42.656;23.312;2022-12-07T00:16:32;94537.66;;;4.72;100.00
7170;BME280;3626;42.656;23.312;2022-12-07T00:16:38;94532.56;;;4.72;100.00
7170;BME280;3626;42.656;23.312;2022-12-07T00:16:45;94532.56;;;4.72;100.00
7170;BME280;3626;42.656;23.312;2022-12-07T00:16:51;94534.28;;;4.71;100.00
7170;BME280;3626;42.656;23.312;2022-12-07T00:16:57;94533.47;;;4.71;100.00
7170;BME280;3626;42.656;23.312;2022-12-07T00:17:03;94537.78;;;4.70;100.00
7170;BME280;3626;42.656;23.312;2022-12-07T00:17:09;94539.53;;;4.70;100.00
7170;BME280;3626;42.656;23.312;2022-12-07T00:17:14;94539.53;;;4.70;100.00
7170;BME280;3626;42.656;23.312;2022-12-07T00:17:20;94536.31;;;4.68;100.00
7170;BME280;3626;42.656;23.312;2022-12-07T00:17:26;94535.38;;;4.69;100.00
7170;BME280;3626;42.656;23.312;2022-12-07T00:17:31;94532.00;;;4.68;100.00
7170;BME280;3626;42.656;23.312;2022-12-07T00:17:38;94537.13;;;4.68;100.00
7170;BME280;3626;42.656;23.312;2022-12-07T00:17:44;94538.72;;;4.69;100.00
7170;BME280;3626;42.656;23.312;2022-12-07T00:17:50;94535.22;;;4.70;100.00
7170;BME280;3626;42.656;23.312;2022-12-07T00:17:56;94541.13;;;4.71;100.00
7170;BME280;3626;42.656;23.312;2022-12-07T00:18:01;94538.59;;;4.71;100.00
7170;BME280;3626;42.656;23.312;2022-12-07T00:18:07;94532.56;;;4.72;100.00
7170;BME280;3626;42.656;23.312;2022-12-07T00:18:13;94531.63;;;4.73;100.00
7170;BME280;3626;42.656;23.312;2022-12-07T00:18:18;94533.34;;;4.72;100.00
7170;BME280;3626;42.656;23.312;2022-12-07T00:18:25;94540.09;;;4.73;100.00
7170;BME280;3626;42.656;23.312;2022-12-07T00:18:31;94535.13;;;4.72;100.00
7170;BME280;3626;42.656;23.312;2022-12-07T00:18:37;94534.16;;;4.73;100.00
7170;BME280;3626;42.656;23.312;2022-12-07T00:18:44;94530.81;;;4.72;100.00
7170;BME280;3626;42.656;23.312;2022-12-07T00:18:50;94530.81;;;4.72;100.00
7170;BME280;3626;42.656;23.312;2022-12-07T00:18:56;94533.34;;;4.72;100.00
7170;BME280;3626;42.656;23.312;2022-12-07T00:19:02;94536.03;;;4.71;100.00
7170;BME280;3626;42.656;23.312;2022-12-07T00:19:09;94539.41;;;4.71;100.00
7170;BME280;3626;42.656;23.312;2022-12-07T00:19:15;94541.13;;;4.71;100.00
7170;BME280;3626;42.656;23.312;2022-12-07T00:19:22;94531.72;;;4.71;100.00
7170;BME280;3626;42.656;23.312;2022-12-07T00:19:27;94533.22;;;4.74;100.00
7170;BME280;3626;42.656;23.312;2022-12-07T00:19:33;94533.34;;;4.72;100.00
7170;BME280;3626;42.656;23.312;2022-12-07T00:19:39;94532.56;;;4.72;100.00
7170;BME280;3626;42.656;23.312;2022-12-07T00:19:44;94536.84;;;4.71;100.00
7170;BME280;3626;42.656;23.312;2022-12-07T00:19:50;94526.59;;;4.71;100.00
7170;BME280;3626;42.656;23.312;2022-12-07T00:19:56;94535.13;;;4.72;100.00
7170;BME280;3626;42.656;23.312;2022-12-07T00:20:02;94536.72;;;4.73;100.00
7170;BME280;3626;42.656;23.312;2022-12-07T00:20:08;94539.03;;;4.76;100.00
7170;BME280;3626;42.656;23.312;2022-12-07T00:20:14;94531.34;;;4.76;100.00
7170;BME280;3626;42.656;23.312;2022-12-07T00:20:20;94530.41;;;4.77;100.00
7170;BME280;3626;42.656;23.312;2022-12-07T00:20:26;94526.09;;;4.78;100.00
7170;BME280;3626;42.656;23.312;2022-12-07T00:20:32;94530.25;;;4.79;100.00
7170;BME280;3626;42.656;23.312;2022-12-07T00:20:38;94528.50;;;4.79;100.00
7170;BME280;3626;42.656;23.312;2022-12-07T00:20:44;94534.44;;;4.80;100.00
7170;BME280;3626;42.656;23.312;2022-12-07T00:20:49;94533.50;;;4.81;100.00
7170;BME280;3626;42.656;23.312;2022-12-07T00:20:59;94532.69;;;4.80;100.00
7170;BME280;3626;42.656;23.312;2022-12-07T00:21:09;94532.69;;;4.80;100.00
7170;BME280;3626;42.656;23.312;2022-12-07T00:21:17;94531.88;;;4.80;100.00
7170;BME280;3626;42.656;23.312;2022-12-07T00:21:24;94533.63;;;4.79;100.00
7170;BME280;3626;42.656;23.312;2022-12-07T00:21:32;94530.25;;;4.79;100.00
7170;BME280;3626;42.656;23.312;2022-12-07T00:21:38;94528.66;;;4.78;100.00
7170;BME280;3626;42.656;23.312;2022-12-07T00:21:44;94532.00;;;4.78;100.00
7170;BME280;3626;42.656;23.312;2022-12-07T00:21:50;94529.31;;;4.80;100.00
7170;BME280;3626;42.656;23.312;2022-12-07T00:21:56;94533.50;;;4.81;100.00
7170;BME280;3626;42.656;23.312;2022-12-07T00:22:01;94528.50;;;4.79;100.00
7170;BME280;3626;42.656;23.312;2022-12-07T00:22:07;94533.63;;;4.79;100.00
7170;BME280;3626;42.656;23.312;2022-12-07T00:22:13;94524.34;;;4.78;100.00
7170;BME280;3626;42.656;23.312;2022-12-07T00:22:18;94526.09;;;4.78;100.00
7170;BME280;3626;42.656;23.312;2022-12-07T00:22:24;94531.34;;;4.76;100.00
7170;BME280;3626;42.656;23.312;2022-12-07T00:22:30;94533.91;;;4.76;100.00
7170;BME280;3626;42.656;23.312;2022-12-07T00:22:36;94528.78;;;4.76;100.00
7170;BME280;3626;42.656;23.312;2022-12-07T00:22:41;94534.72;;;4.76;100.00
7170;BME280;3626;42.656;23.312;2022-12-07T00:22:48;94533.75;;;4.78;100.00
7170;BME280;3626;42.656;23.312;2022-12-07T00:22:54;94530.41;;;4.77;100.00
7170;BME280;3626;42.656;23.312;2022-12-07T00:22:59;94532.00;;;4.78;100.00
7170;BME280;3626;42.656;23.312;2022-12-07T00:23:05;94533.75;;;4.78;100.00
7170;BME280;3626;42.656;23.312;2022-12-07T00:23:11;94532.16;;;4.76;100.00
7170;BME280;3626;42.656;23.312;2022-12-07T00:23:17;94534.56;;;4.78;100.00
7170;BME280;3626;42.656;23.312;2022-12-07T00:23:22;94527.84;;;4.77;100.00
7170;BME280;3626;42.656;23.312;2022-12-07T00:23:28;94534.56;;;4.78;100.00
7170;BME280;3626;42.656;23.312;2022-12-07T00:23:34;94533.63;;;4.79;100.00
7170;BME280;3626;42.656;23.312;2022-12-07T00:23:41;94534.44;;;4.80;100.00
7170;BME280;3626;42.656;23.312;2022-12-07T00:23:48;94532.69;;;4.80;100.00
7170;BME280;3626;42.656;23.312;2022-12-07T00:23:55;94532.69;;;4.80;100.00
7170;BME280;3626;42.656;23.312;2022-12-07T00:24:02;94535.25;;;4.80;100.00
7170;BME280;3626;42.656;23.312;2022-12-07T00:24:10;94536.88;;;4.81;100.00
7170;BME280;3626;42.656;23.312;2022-12-07T00:24:17;94536.88;;;4.81;100.00
7170;BME280;3626;42.656;23.312;2022-12-07T00:24:23;94530.16;;;4.80;100.00
7170;BME280;3626;42.656;23.312;2022-12-07T00:24:29;94531.75;;;4.81;100.00
7170;BME280;3626;42.656;23.312;2022-12-07T00:24:35;94529.06;;;4.83;100.00
7170;BME280;3626;42.656;23.312;2022-12-07T00:24:40;94531.63;;;4.83;100.00
7170;BME280;3626;42.656;23.312;2022-12-07T00:24:46;94532.31;;;4.85;100.00
7170;BME280;3626;42.656;23.312;2022-12-07T00:24:52;94534.84;;;4.85;100.00
7170;BME280;3626;42.656;23.312;2022-12-07T00:24:57;94533.09;;;4.85;100.00
7170;BME280;3626;42.656;23.312;2022-12-07T00:25:04;94528.00;;;4.85;100.00
7170;BME280;3626;42.656;23.312;2022-12-07T00:25:09;94533.09;;;4.85;100.00
7170;BME280;3626;42.656;23.312;2022-12-07T00:25:15;94529.59;;;4.86;100.00
7170;BME280;3626;42.656;23.312;2022-12-07T00:25:21;94531.34;;;4.86;100.00
7170;BME280;3626;42.656;23.312;2022-12-07T00:25:27;94528.91;;;4.84;100.00
7170;BME280;3626;42.656;23.312;2022-12-07T00:25:33;94531.47;;;4.84;100.00
7170;BME280;3626;42.656;23.312;2022-12-07T00:25:38;94530.56;;;4.85;100.00
7170;BME280;3626;42.656;23.312;2022-12-07T00:25:44;94531.47;;;4.84;100.00
7170;BME280;3626;42.656;23.312;2022-12-07T00:25:50;94529.75;;;4.85;100.00
7170;BME280;3626;42.656;23.312;2022-12-07T00:25:56;94527.19;;;4.85;100.00
7170;BME280;3626;42.656;23.312;2022-12-07T00:26:04;94534.84;;;4.85;100.00
7170;BME280;3626;42.656;23.312;2022-12-07T00:26:11;94533.09;;;4.85;100.00
7170;BME280;3626;42.656;23.312;2022-12-07T00:26:19;94532.16;;;4.86;100.00
7170;BME280;3626;42.656;23.312;2022-12-07T00:26:26;94535.53;;;4.87;100.00
7170;BME280;3626;42.656;23.312;2022-12-07T00:26:34;94532.97;;;4.87;100.00
7170;BME280;3626;42.656;23.312;2022-12-07T00:26:41;94535.53;;;4.87;100.00
7170;BME280;3626;42.656;23.312;2022-12-07T00:26:47;94534.72;;;4.86;100.00
7170;BME280;3626;42.656;23.312;2022-12-07T00:26:52;94533.91;;;4.86;100.00
7170;BME280;3626;42.656;23.312;2022-12-07T00:26:58;94533.09;;;4.85;100.00
7170;BME280;3626;42.656;23.312;2022-12-07T00:27:04;94530.66;;;4.84;100.00
7170;BME280;3626;42.656;23.312;2022-12-07T00:27:09;94531.47;;;4.84;100.00
7170;BME280;3626;42.656;23.312;2022-12-07T00:27:15;94535.66;;;4.85;100.00
7170;BME280;3626;42.656;23.312;2022-12-07T00:27:21;94531.47;;;4.84;100.00
7170;BME280;3626;42.656;23.312;2022-12-07T00:27:27;94535.66;;;4.85;100.00
7170;BME280;3626;42.656;23.312;2022-12-07T00:27:33;94537.28;;;4.86;100.00
7170;BME280;3626;42.656;23.312;2022-12-07T00:27:39;94534.72;;;4.86;100.00
7170;BME280;3626;42.656;23.312;2022-12-07T00:27:45;94536.22;;;4.89;100.00
7170;BME280;3626;42.656;23.312;2022-12-07T00:27:52;94539.56;;;4.89;100.00
7170;BME280;3626;42.656;23.312;2022-12-07T00:27:58;94536.06;;;4.90;100.00
7170;BME280;3626;42.656;23.312;2022-12-07T00:28:04;94531.91;;;4.89;100.00
7170;BME280;3626;42.656;23.312;2022-12-07T00:28:09;94538.75;;;4.89;100.00
7170;BME280;3626;42.656;23.312;2022-12-07T00:28:16;94539.03;;;4.86;100.00
7170;BME280;3626;42.656;23.312;2022-12-07T00:28:21;94540.78;;;4.85;100.00
7170;BME280;3626;42.656;23.312;2022-12-07T00:28:29;94534.97;;;4.83;100.00
7170;BME280;3626;42.656;23.312;2022-12-07T00:28:34;94537.53;;;4.83;100.00
7170;BME280;3626;42.656;23.312;2022-12-07T00:28:44;94536.72;;;4.83;100.00
7170;BME280;3626;42.656;23.312;2022-12-07T00:28:53;94545.19;;;4.83;100.00
7170;BME280;3626;42.656;23.312;2022-12-07T00:29:02;94535.78;;;4.84;100.00
7170;BME280;3626;42.656;23.312;2022-12-07T00:29:13;94541.69;;;4.84;100.00
7170;BME280;3626;42.656;23.312;2022-12-07T00:29:21;94535.78;;;4.84;100.00
7170;BME280;3626;42.656;23.312;2022-12-07T00:29:27;94535.78;;;4.84;100.00
7170;BME280;3626;42.656;23.312;2022-12-07T00:29:32;94536.59;;;4.84;100.00
7170;BME280;3626;42.656;23.312;2022-12-07T00:29:38;94542.53;;;4.85;100.00
7170;BME280;3626;42.656;23.312;2022-12-07T00:29:45;94543.34;;;4.85;100.00
7170;BME280;3626;42.656;23.312;2022-12-07T00:29:51;94537.41;;;4.85;100.00
7170;BME280;3626;42.656;23.312;2022-12-07T00:29:56;94540.63;;;4.87;100.00
7170;BME280;3626;42.656;23.312;2022-12-07T00:30:03;94533.75;;;4.87;100.00
7170;BME280;3626;42.656;23.312;2022-12-07T00:30:09;94542.25;;;4.88;100.00
7170;BME280;3626;42.656;23.312;2022-12-07T00:30:15;94541.44;;;4.87;100.00
7170;BME280;3626;42.656;23.312;2022-12-07T00:30:21;94542.13;;;4.89;100.00
7170;BME280;3626;42.656;23.312;2022-12-07T00:30:26;94542.13;;;4.89;100.00
7170;BME280;3626;42.656;23.312;2022-12-07T00:30:32;94542.94;;;4.90;100.00
7170;BME280;3626;42.656;23.312;2022-12-07T00:30:38;94539.56;;;4.89;100.00
7170;BME280;3626;42.656;23.312;2022-12-07T00:30:43;94542.94;;;4.90;100.00
7170;BME280;3626;42.656;23.312;2022-12-07T00:30:49;94537.94;;;4.88;100.00
7170;BME280;3626;42.656;23.312;2022-12-07T00:31:00;94539.56;;;4.89;100.00
7170;BME280;3626;42.656;23.312;2022-12-07T00:31:08;94538.75;;;4.89;100.00
7170;BME280;3626;42.656;23.312;2022-12-07T00:31:16;94536.31;;;4.87;100.00
7170;BME280;3626;42.656;23.312;2022-12-07T00:31:24;94538.75;;;4.89;100.00
7170;BME280;3626;42.656;23.312;2022-12-07T00:31:32;94539.56;;;4.89;100.00
7170;BME280;3626;42.656;23.312;2022-12-07T00:31:38;94537.81;;;4.90;100.00
7170;BME280;3626;42.656;23.312;2022-12-07T00:31:44;94544.53;;;4.91;100.00
7170;BME280;3626;42.656;23.312;2022-12-07T00:31:50;94541.19;;;4.90;100.00
7170;BME280;3626;42.656;23.312;2022-12-07T00:31:56;94542.78;;;4.91;100.00
7170;BME280;3626;42.656;23.312;2022-12-07T00:32:01;94540.38;;;4.90;100.00
7170;BME280;3626;42.656;23.312;2022-12-07T00:32:07;94541.19;;;4.90;100.00
7170;BME280;3626;42.656;23.312;2022-12-07T00:32:13;94534.47;;;4.89;100.00
7170;BME280;3626;42.656;23.312;2022-12-07T00:32:18;94540.38;;;4.90;100.00
7170;BME280;3626;42.656;23.312;2022-12-07T00:32:24;94540.22;;;4.91;100.00
7170;BME280;3626;42.656;23.312;2022-12-07T00:32:31;94539.44;;;4.91;100.00
7170;BME280;3626;42.656;23.312;2022-12-07T00:32:36;94539.56;;;4.89;100.00
7170;BME280;3626;42.656;23.312;2022-12-07T00:32:42;94538.63;;;4.90;100.00
7170;BME280;3626;42.656;23.312;2022-12-07T00:32:48;94537.81;;;4.90;100.00
7170;BME280;3626;42.656;23.312;2022-12-07T00:32:54;94537.94;;;4.88;100.00
7170;BME280;3626;42.656;23.312;2022-12-07T00:33:00;94536.31;;;4.87;100.00
7170;BME280;3626;42.656;23.312;2022-12-07T00:33:05;94543.03;;;4.88;100.00
7170;BME280;3626;42.656;23.312;2022-12-07T00:33:11;94540.63;;;4.87;100.00
7170;BME280;3626;42.656;23.312;2022-12-07T00:33:17;94540.78;;;4.85;100.00
7170;BME280;3626;42.656;23.312;2022-12-07T00:33:22;94536.59;;;4.84;100.00
7170;BME280;3626;42.656;23.312;2022-12-07T00:33:28;94537.41;;;4.85;100.00
7170;BME280;3626;42.656;23.312;2022-12-07T00:33:34;94542.53;;;4.85;100.00
7170;BME280;3626;42.656;23.312;2022-12-07T00:33:40;94542.53;;;4.85;100.00
7170;BME280;3626;42.656;23.312;2022-12-07T00:33:47;94543.34;;;4.85;100.00
7170;BME280;3626;42.656;23.312;2022-12-07T00:33:53;94544.25;;;4.84;100.00
7170;BME280;3626;42.656;23.312;2022-12-07T00:33:59;94540.09;;;4.83;100.00
7170;BME280;3626;42.656;23.312;2022-12-07T00:34:06;94538.63;;;4.81;100.00